sensor_id;sensor_type;location;lat;lon;timestamp;P1;durP1;ratioP1;P2;durP2;ratioP2
81320;SDS011;70785;52.570;5.638;2023-09-30T00:00:57;7.32;;;3.55;;
81320;SDS011;70785;52.570;5.638;2023-09-30T00:03:24;8.35;;;3.25;;
81320;SDS011;70785;52.570;5.638;2023-09-30T00:05:50;9.45;;;2.95;;
81320;SDS011;70785;52.570;5.638;2023-09-30T00:08:16;12.55;;;3.60;;
81320;SDS011;70785;52.570;5.638;2023-09-30T00:10:42;9.32;;;3.22;;
81320;SDS011;70785;52.570;5.638;2023-09-30T00:13:08;9.93;;;2.65;;
81320;SDS011;70785;52.570;5.638;2023-09-30T00:15:35;8.60;;;3.10;;
81320;SDS011;70785;52.570;5.638;2023-09-30T00:18:01;9.18;;;2.78;;
81320;SDS011;70785;52.570;5.638;2023-09-30T00:20:30;15.00;;;3.55;;
81320;SDS011;70785;52.570;5.638;2023-09-30T00:22:56;12.50;;;3.08;;
81320;SDS011;70785;52.570;5.638;2023-09-30T00:25:22;7.45;;;2.63;;
81320;SDS011;70785;52.570;5.638;2023-09-30T00:27:49;11.77;;;2.72;;
81320;SDS011;70785;52.570;5.638;2023-09-30T00:30:15;8.38;;;2.45;;
81320;SDS011;70785;52.570;5.638;2023-09-30T00:32:42;5.00;;;2.63;;
81320;SDS011;70785;52.570;5.638;2023-09-30T00:35:08;11.82;;;3.28;;
81320;SDS011;70785;52.570;5.638;2023-09-30T00:37:40;11.18;;;3.03;;
81320;SDS011;70785;52.570;5.638;2023-09-30T00:40:06;6.97;;;2.58;;
81320;SDS011;70785;52.570;5.638;2023-09-30T00:45:03;10.38;;;2.83;;
81320;SDS011;70785;52.570;5.638;2023-09-30T00:47:31;11.25;;;2.83;;
81320;SDS011;70785;52.570;5.638;2023-09-30T00:49:59;14.93;;;3.17;;
81320;SDS011;70785;52.570;5.638;2023-09-30T00:52:25;7.60;;;2.50;;
81320;SDS011;70785;52.570;5.638;2023-09-30T00:54:52;9.95;;;3.08;;
81320;SDS011;70785;52.570;5.638;2023-09-30T00:57:20;11.27;;;2.53;;
81320;SDS011;70785;52.570;5.638;2023-09-30T00:59:47;7.68;;;2.30;;
81320;SDS011;70785;52.570;5.638;2023-09-30T01:02:17;11.35;;;2.80;;
81320;SDS011;70785;52.570;5.638;2023-09-30T01:04:44;8.68;;;2.88;;
81320;SDS011;70785;52.570;5.638;2023-09-30T01:07:10;8.52;;;3.00;;
81320;SDS011;70785;52.570;5.638;2023-09-30T01:09:37;11.18;;;2.80;;
81320;SDS011;70785;52.570;5.638;2023-09-30T01:12:04;10.02;;;2.70;;
81320;SDS011;70785;52.570;5.638;2023-09-30T01:14:31;6.22;;;3.10;;
81320;SDS011;70785;52.570;5.638;2023-09-30T01:17:00;8.45;;;2.67;;
81320;SDS011;70785;52.570;5.638;2023-09-30T01:19:27;7.38;;;2.50;;
81320;SDS011;70785;52.570;5.638;2023-09-30T01:21:57;8.70;;;3.50;;
81320;SDS011;70785;52.570;5.638;2023-09-30T01:24:25;7.18;;;2.75;;
81320;SDS011;70785;52.570;5.638;2023-09-30T01:26:52;9.48;;;2.95;;
81320;SDS011;70785;52.570;5.638;2023-09-30T01:29:19;16.13;;;3.13;;
81320;SDS011;70785;52.570;5.638;2023-09-30T01:31:46;7.72;;;3.15;;
81320;SDS011;70785;52.570;5.638;2023-09-30T01:34:14;11.32;;;2.63;;
81320;SDS011;70785;52.570;5.638;2023-09-30T01:36:43;9.82;;;2.92;;
81320;SDS011;70785;52.570;5.638;2023-09-30T01:39:10;8.55;;;3.03;;
81320;SDS011;70785;52.570;5.638;2023-09-30T01:41:37;11.45;;;2.95;;
81320;SDS011;70785;52.570;5.638;2023-09-30T01:44:06;7.88;;;3.15;;
81320;SDS011;70785;52.570;5.638;2023-09-30T01:46:33;6.80;;;2.65;;
81320;SDS011;70785;52.570;5.638;2023-09-30T01:48:59;6.60;;;2.80;;
81320;SDS011;70785;52.570;5.638;2023-09-30T01:51:25;10.00;;;3.78;;
81320;SDS011;70785;52.570;5.638;2023-09-30T01:53:53;7.32;;;2.90;;
81320;SDS011;70785;52.570;5.638;2023-09-30T01:56:19;9.60;;;3.30;;
81320;SDS011;70785;52.570;5.638;2023-09-30T01:58:45;10.75;;;3.72;;
81320;SDS011;70785;52.570;5.638;2023-09-30T02:01:11;6.47;;;3.05;;
81320;SDS011;70785;52.570;5.638;2023-09-30T02:03:37;7.05;;;2.75;;
81320;SDS011;70785;52.570;5.638;2023-09-30T02:06:04;12.60;;;3.45;;
81320;SDS011;70785;52.570;5.638;2023-09-30T02:08:30;9.63;;;3.58;;
81320;SDS011;70785;52.570;5.638;2023-09-30T02:10:57;11.80;;;3.53;;
81320;SDS011;70785;52.570;5.638;2023-09-30T02:13:23;8.65;;;3.53;;
81320;SDS011;70785;52.570;5.638;2023-09-30T02:15:49;8.38;;;3.40;;
81320;SDS011;70785;52.570;5.638;2023-09-30T02:18:16;9.48;;;3.50;;
81320;SDS011;70785;52.570;5.638;2023-09-30T02:20:43;11.32;;;3.53;;
81320;SDS011;70785;52.570;5.638;2023-09-30T02:23:10;7.70;;;3.47;;
81320;SDS011;70785;52.570;5.638;2023-09-30T02:25:39;13.13;;;4.18;;
81320;SDS011;70785;52.570;5.638;2023-09-30T02:28:05;11.20;;;4.07;;
81320;SDS011;70785;52.570;5.638;2023-09-30T02:30:32;9.27;;;3.80;;
81320;SDS011;70785;52.570;5.638;2023-09-30T02:32:59;9.20;;;3.90;;
81320;SDS011;70785;52.570;5.638;2023-09-30T02:35:26;11.27;;;3.83;;
81320;SDS011;70785;52.570;5.638;2023-09-30T02:37:52;10.77;;;4.05;;
81320;SDS011;70785;52.570;5.638;2023-09-30T02:40:19;9.38;;;3.55;;
81320;SDS011;70785;52.570;5.638;2023-09-30T02:42:46;10.27;;;3.55;;
81320;SDS011;70785;52.570;5.638;2023-09-30T02:45:14;11.10;;;3.90;;
81320;SDS011;70785;52.570;5.638;2023-09-30T02:47:42;10.50;;;4.07;;
81320;SDS011;70785;52.570;5.638;2023-09-30T02:50:09;9.20;;;3.70;;
81320;SDS011;70785;52.570;5.638;2023-09-30T02:52:39;13.48;;;4.93;;
81320;SDS011;70785;52.570;5.638;2023-09-30T02:55:09;9.43;;;4.10;;
81320;SDS011;70785;52.570;5.638;2023-09-30T02:57:36;12.43;;;4.10;;
81320;SDS011;70785;52.570;5.638;2023-09-30T03:00:03;14.77;;;4.88;;
81320;SDS011;70785;52.570;5.638;2023-09-30T03:02:49;10.68;;;4.03;;
81320;SDS011;70785;52.570;5.638;2023-09-30T03:05:17;10.20;;;4.68;;
81320;SDS011;70785;52.570;5.638;2023-09-30T03:07:43;9.85;;;4.38;;
81320;SDS011;70785;52.570;5.638;2023-09-30T03:10:11;11.32;;;4.43;;
81320;SDS011;70785;52.570;5.638;2023-09-30T03:12:39;10.00;;;4.38;;
81320;SDS011;70785;52.570;5.638;2023-09-30T03:15:05;12.32;;;4.93;;
81320;SDS011;70785;52.570;5.638;2023-09-30T03:17:32;12.48;;;5.05;;
81320;SDS011;70785;52.570;5.638;2023-09-30T03:19:58;10.85;;;5.00;;
81320;SDS011;70785;52.570;5.638;2023-09-30T03:22:26;10.13;;;5.25;;
81320;SDS011;70785;52.570;5.638;2023-09-30T03:24:54;11.93;;;5.05;;
81320;SDS011;70785;52.570;5.638;2023-09-30T03:27:23;13.75;;;5.53;;
81320;SDS011;70785;52.570;5.638;2023-09-30T03:29:49;11.32;;;4.88;;
81320;SDS011;70785;52.570;5.638;2023-09-30T03:32:15;12.25;;;5.60;;
81320;SDS011;70785;52.570;5.638;2023-09-30T03:34:41;13.68;;;5.80;;
81320;SDS011;70785;52.570;5.638;2023-09-30T03:37:10;15.63;;;5.47;;
81320;SDS011;70785;52.570;5.638;2023-09-30T03:39:36;12.50;;;4.75;;
81320;SDS011;70785;52.570;5.638;2023-09-30T03:42:03;9.60;;;5.13;;
81320;SDS011;70785;52.570;5.638;2023-09-30T03:44:29;13.52;;;5.45;;
81320;SDS011;70785;52.570;5.638;2023-09-30T03:46:55;12.50;;;5.40;;
81320;SDS011;70785;52.570;5.638;2023-09-30T03:49:22;12.48;;;5.75;;
81320;SDS011;70785;52.570;5.638;2023-09-30T03:51:49;13.38;;;4.68;;
81320;SDS011;70785;52.570;5.638;2023-09-30T03:54:16;12.70;;;6.38;;
81320;SDS011;70785;52.570;5.638;2023-09-30T03:56:44;12.32;;;5.55;;
81320;SDS011;70785;52.570;5.638;2023-09-30T03:59:12;14.10;;;6.00;;
81320;SDS011;70785;52.570;5.638;2023-09-30T04:01:38;14.07;;;6.65;;
81320;SDS011;70785;52.570;5.638;2023-09-30T04:04:08;13.57;;;5.40;;
81320;SDS011;70785;52.570;5.638;2023-09-30T04:06:35;14.80;;;5.88;;
81320;SDS011;70785;52.570;5.638;2023-09-30T04:09:04;11.23;;;5.60;;
81320;SDS011;70785;52.570;5.638;2023-09-30T04:11:36;13.63;;;5.70;;
81320;SDS011;70785;52.570;5.638;2023-09-30T04:14:03;13.82;;;5.93;;
81320;SDS011;70785;52.570;5.638;2023-09-30T04:18:59;11.10;;;6.15;;
81320;SDS011;70785;52.570;5.638;2023-09-30T04:21:26;12.20;;;5.88;;
81320;SDS011;70785;52.570;5.638;2023-09-30T04:23:54;14.02;;;6.60;;
81320;SDS011;70785;52.570;5.638;2023-09-30T04:26:21;12.43;;;5.90;;
81320;SDS011;70785;52.570;5.638;2023-09-30T04:28:47;14.82;;;7.20;;
81320;SDS011;70785;52.570;5.638;2023-09-30T04:31:15;15.90;;;6.35;;
81320;SDS011;70785;52.570;5.638;2023-09-30T04:33:41;13.95;;;6.75;;
81320;SDS011;70785;52.570;5.638;2023-09-30T04:36:08;19.08;;;7.88;;
81320;SDS011;70785;52.570;5.638;2023-09-30T04:38:34;16.63;;;6.97;;
81320;SDS011;70785;52.570;5.638;2023-09-30T04:41:03;17.55;;;6.90;;
81320;SDS011;70785;52.570;5.638;2023-09-30T04:43:31;14.90;;;6.70;;
81320;SDS011;70785;52.570;5.638;2023-09-30T04:45:58;12.57;;;6.70;;
81320;SDS011;70785;52.570;5.638;2023-09-30T04:48:24;17.77;;;7.43;;
81320;SDS011;70785;52.570;5.638;2023-09-30T04:50:50;19.42;;;7.90;;
81320;SDS011;70785;52.570;5.638;2023-09-30T04:53:17;20.00;;;7.45;;
81320;SDS011;70785;52.570;5.638;2023-09-30T04:55:44;19.02;;;7.75;;
81320;SDS011;70785;52.570;5.638;2023-09-30T04:58:10;16.25;;;7.20;;
81320;SDS011;70785;52.570;5.638;2023-09-30T05:00:38;15.63;;;7.38;;
81320;SDS011;70785;52.570;5.638;2023-09-30T05:03:05;19.40;;;8.40;;
81320;SDS011;70785;52.570;5.638;2023-09-30T05:05:31;17.92;;;7.38;;
81320;SDS011;70785;52.570;5.638;2023-09-30T05:07:57;13.98;;;7.47;;
81320;SDS011;70785;52.570;5.638;2023-09-30T05:10:24;18.52;;;8.48;;
81320;SDS011;70785;52.570;5.638;2023-09-30T05:12:51;18.38;;;7.95;;
81320;SDS011;70785;52.570;5.638;2023-09-30T05:15:20;17.40;;;7.40;;
81320;SDS011;70785;52.570;5.638;2023-09-30T05:17:47;16.48;;;7.68;;
81320;SDS011;70785;52.570;5.638;2023-09-30T05:20:14;20.20;;;8.43;;
81320;SDS011;70785;52.570;5.638;2023-09-30T05:22:45;19.60;;;8.07;;
81320;SDS011;70785;52.570;5.638;2023-09-30T05:25:14;18.17;;;8.65;;
81320;SDS011;70785;52.570;5.638;2023-09-30T05:27:44;14.25;;;7.55;;
81320;SDS011;70785;52.570;5.638;2023-09-30T05:30:13;17.77;;;7.82;;
81320;SDS011;70785;52.570;5.638;2023-09-30T05:32:41;20.63;;;8.68;;
81320;SDS011;70785;52.570;5.638;2023-09-30T05:35:07;18.42;;;8.43;;
81320;SDS011;70785;52.570;5.638;2023-09-30T05:37:43;19.40;;;8.43;;
81320;SDS011;70785;52.570;5.638;2023-09-30T05:40:10;22.50;;;9.23;;
81320;SDS011;70785;52.570;5.638;2023-09-30T05:42:53;17.25;;;8.75;;
81320;SDS011;70785;52.570;5.638;2023-09-30T05:45:26;22.45;;;9.32;;
81320;SDS011;70785;52.570;5.638;2023-09-30T05:47:53;27.65;;;9.02;;
81320;SDS011;70785;52.570;5.638;2023-09-30T05:50:21;18.40;;;8.57;;
81320;SDS011;70785;52.570;5.638;2023-09-30T05:52:52;18.67;;;8.73;;
81320;SDS011;70785;52.570;5.638;2023-09-30T05:55:20;17.02;;;8.65;;
81320;SDS011;70785;52.570;5.638;2023-09-30T05:57:48;17.80;;;9.00;;
81320;SDS011;70785;52.570;5.638;2023-09-30T06:00:15;20.48;;;8.57;;
81320;SDS011;70785;52.570;5.638;2023-09-30T06:02:59;19.77;;;8.63;;
81320;SDS011;70785;52.570;5.638;2023-09-30T06:05:25;17.08;;;9.45;;
81320;SDS011;70785;52.570;5.638;2023-09-30T06:07:53;18.35;;;9.93;;
81320;SDS011;70785;52.570;5.638;2023-09-30T06:10:19;19.60;;;9.07;;
81320;SDS011;70785;52.570;5.638;2023-09-30T06:12:46;17.30;;;8.60;;
81320;SDS011;70785;52.570;5.638;2023-09-30T06:15:13;16.25;;;7.80;;
81320;SDS011;70785;52.570;5.638;2023-09-30T06:17:41;17.50;;;8.30;;
81320;SDS011;70785;52.570;5.638;2023-09-30T06:20:08;18.17;;;8.90;;
81320;SDS011;70785;52.570;5.638;2023-09-30T06:22:44;20.20;;;9.02;;
81320;SDS011;70785;52.570;5.638;2023-09-30T06:25:14;19.80;;;9.40;;
81320;SDS011;70785;52.570;5.638;2023-09-30T06:27:44;20.05;;;8.07;;
81320;SDS011;70785;52.570;5.638;2023-09-30T06:30:11;19.67;;;8.77;;
81320;SDS011;70785;52.570;5.638;2023-09-30T06:32:39;28.95;;;11.00;;
81320;SDS011;70785;52.570;5.638;2023-09-30T06:35:06;20.42;;;9.60;;
81320;SDS011;70785;52.570;5.638;2023-09-30T06:37:36;17.92;;;10.07;;
81320;SDS011;70785;52.570;5.638;2023-09-30T06:40:06;18.95;;;9.43;;
81320;SDS011;70785;52.570;5.638;2023-09-30T06:42:34;22.05;;;9.48;;
81320;SDS011;70785;52.570;5.638;2023-09-30T06:45:02;19.13;;;8.73;;
81320;SDS011;70785;52.570;5.638;2023-09-30T06:47:34;16.90;;;9.15;;
81320;SDS011;70785;52.570;5.638;2023-09-30T06:50:02;24.17;;;9.88;;
81320;SDS011;70785;52.570;5.638;2023-09-30T06:52:42;21.55;;;8.85;;
81320;SDS011;70785;52.570;5.638;2023-09-30T06:55:11;19.35;;;9.48;;
81320;SDS011;70785;52.570;5.638;2023-09-30T06:57:40;18.30;;;8.95;;
81320;SDS011;70785;52.570;5.638;2023-09-30T07:00:06;15.48;;;8.85;;
81320;SDS011;70785;52.570;5.638;2023-09-30T07:02:37;19.23;;;8.75;;
81320;SDS011;70785;52.570;5.638;2023-09-30T07:05:08;15.68;;;8.90;;
81320;SDS011;70785;52.570;5.638;2023-09-30T07:07:38;18.73;;;9.60;;
81320;SDS011;70785;52.570;5.638;2023-09-30T07:10:05;18.25;;;9.25;;
81320;SDS011;70785;52.570;5.638;2023-09-30T07:12:32;17.70;;;9.77;;
81320;SDS011;70785;52.570;5.638;2023-09-30T07:15:01;20.30;;;8.68;;
81320;SDS011;70785;52.570;5.638;2023-09-30T07:17:28;18.75;;;9.82;;
81320;SDS011;70785;52.570;5.638;2023-09-30T07:19:54;18.98;;;9.02;;
81320;SDS011;70785;52.570;5.638;2023-09-30T07:22:20;18.85;;;9.35;;
81320;SDS011;70785;52.570;5.638;2023-09-30T07:24:46;18.83;;;9.35;;
81320;SDS011;70785;52.570;5.638;2023-09-30T07:27:12;19.50;;;10.00;;
81320;SDS011;70785;52.570;5.638;2023-09-30T07:29:39;19.30;;;9.50;;
81320;SDS011;70785;52.570;5.638;2023-09-30T07:32:06;14.88;;;8.18;;
81320;SDS011;70785;52.570;5.638;2023-09-30T07:34:33;15.15;;;8.88;;
81320;SDS011;70785;52.570;5.638;2023-09-30T07:36:59;21.48;;;9.60;;
81320;SDS011;70785;52.570;5.638;2023-09-30T07:39:25;24.08;;;9.45;;
81320;SDS011;70785;52.570;5.638;2023-09-30T07:41:51;17.75;;;8.98;;
81320;SDS011;70785;52.570;5.638;2023-09-30T07:44:17;21.55;;;8.82;;
81320;SDS011;70785;52.570;5.638;2023-09-30T07:46:44;18.73;;;9.15;;
81320;SDS011;70785;52.570;5.638;2023-09-30T07:49:10;18.13;;;8.18;;
81320;SDS011;70785;52.570;5.638;2023-09-30T07:51:36;19.05;;;8.43;;
81320;SDS011;70785;52.570;5.638;2023-09-30T07:54:05;20.33;;;9.05;;
81320;SDS011;70785;52.570;5.638;2023-09-30T07:56:31;16.30;;;8.43;;
81320;SDS011;70785;52.570;5.638;2023-09-30T07:58:57;13.93;;;7.97;;
81320;SDS011;70785;52.570;5.638;2023-09-30T08:01:23;17.63;;;7.90;;
81320;SDS011;70785;52.570;5.638;2023-09-30T08:03:50;16.40;;;7.07;;
81320;SDS011;70785;52.570;5.638;2023-09-30T08:06:16;17.17;;;9.50;;
81320;SDS011;70785;52.570;5.638;2023-09-30T08:08:42;20.13;;;9.18;;
81320;SDS011;70785;52.570;5.638;2023-09-30T08:11:08;17.73;;;9.20;;
81320;SDS011;70785;52.570;5.638;2023-09-30T08:13:34;19.40;;;8.85;;
81320;SDS011;70785;52.570;5.638;2023-09-30T08:16:00;15.73;;;8.38;;
81320;SDS011;70785;52.570;5.638;2023-09-30T08:18:26;15.65;;;8.23;;
81320;SDS011;70785;52.570;5.638;2023-09-30T08:20:52;16.05;;;9.23;;
81320;SDS011;70785;52.570;5.638;2023-09-30T08:23:18;19.08;;;8.23;;
81320;SDS011;70785;52.570;5.638;2023-09-30T08:25:45;13.88;;;7.75;;
81320;SDS011;70785;52.570;5.638;2023-09-30T08:28:11;16.25;;;7.88;;
81320;SDS011;70785;52.570;5.638;2023-09-30T08:30:38;15.15;;;9.38;;
81320;SDS011;70785;52.570;5.638;2023-09-30T08:33:04;15.95;;;9.02;;
81320;SDS011;70785;52.570;5.638;2023-09-30T08:35:37;16.20;;;8.10;;
81320;SDS011;70785;52.570;5.638;2023-09-30T08:38:03;12.32;;;7.82;;
81320;SDS011;70785;52.570;5.638;2023-09-30T08:40:30;12.52;;;7.03;;
81320;SDS011;70785;52.570;5.638;2023-09-30T08:42:56;14.68;;;7.70;;
81320;SDS011;70785;52.570;5.638;2023-09-30T08:45:23;14.98;;;6.45;;
81320;SDS011;70785;52.570;5.638;2023-09-30T08:47:49;16.60;;;7.50;;
81320;SDS011;70785;52.570;5.638;2023-09-30T08:50:16;13.88;;;7.55;;
81320;SDS011;70785;52.570;5.638;2023-09-30T08:52:43;14.98;;;7.43;;
81320;SDS011;70785;52.570;5.638;2023-09-30T08:55:11;15.10;;;7.63;;
81320;SDS011;70785;52.570;5.638;2023-09-30T08:57:38;13.25;;;7.68;;
81320;SDS011;70785;52.570;5.638;2023-09-30T09:00:11;14.18;;;7.57;;
81320;SDS011;70785;52.570;5.638;2023-09-30T09:02:42;14.70;;;6.82;;
81320;SDS011;70785;52.570;5.638;2023-09-30T09:05:08;11.32;;;6.78;;
81320;SDS011;70785;52.570;5.638;2023-09-30T09:07:35;12.63;;;7.20;;
81320;SDS011;70785;52.570;5.638;2023-09-30T09:12:34;15.65;;;7.47;;
81320;SDS011;70785;52.570;5.638;2023-09-30T09:15:02;12.40;;;7.28;;
81320;SDS011;70785;52.570;5.638;2023-09-30T09:17:44;13.82;;;6.93;;
81320;SDS011;70785;52.570;5.638;2023-09-30T09:20:11;13.68;;;7.10;;
81320;SDS011;70785;52.570;5.638;2023-09-30T09:22:45;13.38;;;7.28;;
81320;SDS011;70785;52.570;5.638;2023-09-30T09:25:12;14.63;;;7.63;;
81320;SDS011;70785;52.570;5.638;2023-09-30T09:27:38;10.75;;;6.07;;
81320;SDS011;70785;52.570;5.638;2023-09-30T09:30:21;14.95;;;7.07;;
81320;SDS011;70785;52.570;5.638;2023-09-30T09:32:54;13.18;;;6.57;;
81320;SDS011;70785;52.570;5.638;2023-09-30T09:35:28;15.13;;;6.55;;
81320;SDS011;70785;52.570;5.638;2023-09-30T09:37:56;14.02;;;6.63;;
81320;SDS011;70785;52.570;5.638;2023-09-30T09:40:25;13.40;;;5.93;;
81320;SDS011;70785;52.570;5.638;2023-09-30T09:42:55;10.70;;;6.30;;
81320;SDS011;70785;52.570;5.638;2023-09-30T09:45:22;14.43;;;6.10;;
81320;SDS011;70785;52.570;5.638;2023-09-30T09:47:50;9.93;;;5.10;;
81320;SDS011;70785;52.570;5.638;2023-09-30T09:50:19;12.13;;;5.05;;
81320;SDS011;70785;52.570;5.638;2023-09-30T09:52:47;12.38;;;5.57;;
81320;SDS011;70785;52.570;5.638;2023-09-30T09:55:16;10.85;;;4.93;;
81320;SDS011;70785;52.570;5.638;2023-09-30T09:57:44;8.40;;;4.22;;
81320;SDS011;70785;52.570;5.638;2023-09-30T10:00:12;10.88;;;4.93;;
81320;SDS011;70785;52.570;5.638;2023-09-30T10:02:44;10.32;;;3.58;;
81320;SDS011;70785;52.570;5.638;2023-09-30T10:05:13;10.18;;;3.70;;
81320;SDS011;70785;52.570;5.638;2023-09-30T10:07:42;5.38;;;2.45;;
81320;SDS011;70785;52.570;5.638;2023-09-30T10:10:28;7.80;;;2.65;;
81320;SDS011;70785;52.570;5.638;2023-09-30T10:12:56;8.93;;;3.55;;
81320;SDS011;70785;52.570;5.638;2023-09-30T10:18:00;5.63;;;1.90;;
81320;SDS011;70785;52.570;5.638;2023-09-30T10:20:33;5.88;;;1.50;;
81320;SDS011;70785;52.570;5.638;2023-09-30T10:23:20;7.18;;;2.17;;
81320;SDS011;70785;52.570;5.638;2023-09-30T10:25:47;6.07;;;1.25;;
81320;SDS011;70785;52.570;5.638;2023-09-30T10:28:34;5.57;;;1.08;;
81320;SDS011;70785;52.570;5.638;2023-09-30T10:31:14;4.28;;;1.05;;
81320;SDS011;70785;52.570;5.638;2023-09-30T10:36:27;5.53;;;1.23;;
81320;SDS011;70785;52.570;5.638;2023-09-30T10:39:10;7.18;;;1.90;;
81320;SDS011;70785;52.570;5.638;2023-09-30T10:46:48;4.22;;;1.73;;
81320;SDS011;70785;52.570;5.638;2023-09-30T10:49:16;5.55;;;1.10;;
81320;SDS011;70785;52.570;5.638;2023-09-30T10:51:52;4.30;;;0.80;;
81320;SDS011;70785;52.570;5.638;2023-09-30T10:54:22;6.10;;;0.93;;
81320;SDS011;70785;52.570;5.638;2023-09-30T10:56:50;5.43;;;0.90;;
81320;SDS011;70785;52.570;5.638;2023-09-30T10:59:23;5.00;;;0.85;;
81320;SDS011;70785;52.570;5.638;2023-09-30T11:01:49;4.45;;;1.00;;
81320;SDS011;70785;52.570;5.638;2023-09-30T11:04:17;5.65;;;1.02;;
81320;SDS011;70785;52.570;5.638;2023-09-30T11:06:44;3.75;;;1.10;;
81320;SDS011;70785;52.570;5.638;2023-09-30T11:09:17;4.13;;;0.77;;
81320;SDS011;70785;52.570;5.638;2023-09-30T11:11:46;3.50;;;0.85;;
81320;SDS011;70785;52.570;5.638;2023-09-30T11:14:20;2.88;;;0.82;;
81320;SDS011;70785;52.570;5.638;2023-09-30T11:16:57;5.05;;;0.93;;
81320;SDS011;70785;52.570;5.638;2023-09-30T11:19:25;3.63;;;0.80;;
81320;SDS011;70785;52.570;5.638;2023-09-30T11:21:53;3.88;;;0.70;;
81320;SDS011;70785;52.570;5.638;2023-09-30T11:24:24;2.55;;;0.55;;
81320;SDS011;70785;52.570;5.638;2023-09-30T11:26:54;3.38;;;0.60;;
81320;SDS011;70785;52.570;5.638;2023-09-30T11:29:23;4.90;;;0.80;;
81320;SDS011;70785;52.570;5.638;2023-09-30T11:31:50;4.00;;;0.75;;
81320;SDS011;70785;52.570;5.638;2023-09-30T11:34:17;2.25;;;0.50;;
81320;SDS011;70785;52.570;5.638;2023-09-30T11:36:52;5.22;;;1.25;;
81320;SDS011;70785;52.570;5.638;2023-09-30T11:39:22;4.03;;;0.70;;
81320;SDS011;70785;52.570;5.638;2023-09-30T11:41:51;6.90;;;1.50;;
81320;SDS011;70785;52.570;5.638;2023-09-30T11:44:18;3.55;;;0.55;;
81320;SDS011;70785;52.570;5.638;2023-09-30T11:46:51;4.05;;;0.90;;
81320;SDS011;70785;52.570;5.638;2023-09-30T11:49:30;4.65;;;0.95;;
81320;SDS011;70785;52.570;5.638;2023-09-30T11:52:04;3.30;;;0.63;;
81320;SDS011;70785;52.570;5.638;2023-09-30T11:57:00;2.50;;;0.88;;
81320;SDS011;70785;52.570;5.638;2023-09-30T11:59:27;3.45;;;0.60;;
81320;SDS011;70785;52.570;5.638;2023-09-30T12:01:53;7.50;;;0.98;;
81320;SDS011;70785;52.570;5.638;2023-09-30T12:04:20;5.43;;;0.75;;
81320;SDS011;70785;52.570;5.638;2023-09-30T12:06:47;5.70;;;0.82;;
81320;SDS011;70785;52.570;5.638;2023-09-30T12:09:14;7.78;;;1.30;;
81320;SDS011;70785;52.570;5.638;2023-09-30T12:11:42;3.95;;;0.65;;
81320;SDS011;70785;52.570;5.638;2023-09-30T12:14:10;3.92;;;1.00;;
81320;SDS011;70785;52.570;5.638;2023-09-30T12:16:37;5.40;;;1.05;;
81320;SDS011;70785;52.570;5.638;2023-09-30T12:19:03;3.35;;;0.60;;
81320;SDS011;70785;52.570;5.638;2023-09-30T12:21:31;4.05;;;1.00;;
81320;SDS011;70785;52.570;5.638;2023-09-30T12:23:58;4.95;;;0.95;;
81320;SDS011;70785;52.570;5.638;2023-09-30T12:26:24;4.03;;;0.70;;
81320;SDS011;70785;52.570;5.638;2023-09-30T12:28:51;4.00;;;0.98;;
81320;SDS011;70785;52.570;5.638;2023-09-30T12:31:18;4.43;;;0.73;;
81320;SDS011;70785;52.570;5.638;2023-09-30T12:33:45;6.47;;;1.60;;
81320;SDS011;70785;52.570;5.638;2023-09-30T12:36:16;5.38;;;0.77;;
81320;SDS011;70785;52.570;5.638;2023-09-30T12:38:43;5.95;;;0.88;;
81320;SDS011;70785;52.570;5.638;2023-09-30T12:41:10;4.90;;;1.15;;
81320;SDS011;70785;52.570;5.638;2023-09-30T12:43:36;4.43;;;0.70;;
81320;SDS011;70785;52.570;5.638;2023-09-30T12:46:03;5.72;;;1.20;;
81320;SDS011;70785;52.570;5.638;2023-09-30T12:48:30;3.45;;;1.00;;
81320;SDS011;70785;52.570;5.638;2023-09-30T12:50:56;9.07;;;1.40;;
81320;SDS011;70785;52.570;5.638;2023-09-30T12:53:22;8.00;;;1.05;;
81320;SDS011;70785;52.570;5.638;2023-09-30T12:55:48;3.20;;;1.30;;
81320;SDS011;70785;52.570;5.638;2023-09-30T12:58:14;5.72;;;0.98;;
81320;SDS011;70785;52.570;5.638;2023-09-30T13:00:40;4.72;;;1.17;;
81320;SDS011;70785;52.570;5.638;2023-09-30T13:03:06;4.40;;;1.30;;
81320;SDS011;70785;52.570;5.638;2023-09-30T13:05:33;5.10;;;0.90;;
81320;SDS011;70785;52.570;5.638;2023-09-30T13:07:59;5.68;;;1.52;;
81320;SDS011;70785;52.570;5.638;2023-09-30T13:10:26;7.15;;;1.60;;
81320;SDS011;70785;52.570;5.638;2023-09-30T13:12:53;5.78;;;1.10;;
81320;SDS011;70785;52.570;5.638;2023-09-30T13:15:19;5.13;;;1.10;;
81320;SDS011;70785;52.570;5.638;2023-09-30T13:17:47;5.07;;;1.25;;
81320;SDS011;70785;52.570;5.638;2023-09-30T13:20:13;7.93;;;3.20;;
81320;SDS011;70785;52.570;5.638;2023-09-30T13:22:39;8.25;;;2.17;;
81320;SDS011;70785;52.570;5.638;2023-09-30T13:25:06;4.25;;;1.15;;
81320;SDS011;70785;52.570;5.638;2023-09-30T13:27:38;4.22;;;1.10;;
81320;SDS011;70785;52.570;5.638;2023-09-30T13:30:06;5.68;;;1.10;;
81320;SDS011;70785;52.570;5.638;2023-09-30T13:32:33;5.80;;;1.17;;
81320;SDS011;70785;52.570;5.638;2023-09-30T13:35:03;6.65;;;1.10;;
81320;SDS011;70785;52.570;5.638;2023-09-30T13:37:31;4.60;;;1.20;;
81320;SDS011;70785;52.570;5.638;2023-09-30T13:39:59;4.22;;;1.00;;
81320;SDS011;70785;52.570;5.638;2023-09-30T13:42:26;7.93;;;1.08;;
81320;SDS011;70785;52.570;5.638;2023-09-30T13:44:52;3.88;;;1.00;;
81320;SDS011;70785;52.570;5.638;2023-09-30T13:47:19;5.25;;;1.00;;
81320;SDS011;70785;52.570;5.638;2023-09-30T13:49:45;3.45;;;1.10;;
81320;SDS011;70785;52.570;5.638;2023-09-30T13:52:12;6.07;;;0.80;;
81320;SDS011;70785;52.570;5.638;2023-09-30T13:54:38;3.42;;;1.00;;
81320;SDS011;70785;52.570;5.638;2023-09-30T13:57:04;6.38;;;1.10;;
81320;SDS011;70785;52.570;5.638;2023-09-30T13:59:33;5.38;;;1.48;;
81320;SDS011;70785;52.570;5.638;2023-09-30T14:02:00;3.88;;;0.90;;
81320;SDS011;70785;52.570;5.638;2023-09-30T14:04:26;6.00;;;1.05;;
81320;SDS011;70785;52.570;5.638;2023-09-30T14:06:52;4.47;;;1.30;;
81320;SDS011;70785;52.570;5.638;2023-09-30T14:09:19;7.90;;;1.38;;
81320;SDS011;70785;52.570;5.638;2023-09-30T14:11:45;5.70;;;1.20;;
81320;SDS011;70785;52.570;5.638;2023-09-30T14:14:11;7.32;;;1.40;;
81320;SDS011;70785;52.570;5.638;2023-09-30T14:16:37;3.25;;;0.93;;
81320;SDS011;70785;52.570;5.638;2023-09-30T14:19:03;3.40;;;0.75;;
81320;SDS011;70785;52.570;5.638;2023-09-30T14:21:29;3.40;;;1.17;;
81320;SDS011;70785;52.570;5.638;2023-09-30T14:23:57;3.88;;;0.95;;
81320;SDS011;70785;52.570;5.638;2023-09-30T14:26:23;3.10;;;1.00;;
81320;SDS011;70785;52.570;5.638;2023-09-30T14:28:50;7.10;;;1.23;;
81320;SDS011;70785;52.570;5.638;2023-09-30T14:31:16;7.72;;;1.33;;
81320;SDS011;70785;52.570;5.638;2023-09-30T14:33:43;4.80;;;1.08;;
81320;SDS011;70785;52.570;5.638;2023-09-30T14:36:09;4.18;;;1.08;;
81320;SDS011;70785;52.570;5.638;2023-09-30T14:38:35;3.55;;;0.90;;
81320;SDS011;70785;52.570;5.638;2023-09-30T14:41:05;4.78;;;0.85;;
81320;SDS011;70785;52.570;5.638;2023-09-30T14:43:33;3.50;;;1.08;;
81320;SDS011;70785;52.570;5.638;2023-09-30T14:46:02;4.35;;;1.33;;
81320;SDS011;70785;52.570;5.638;2023-09-30T14:48:31;6.18;;;1.02;;
81320;SDS011;70785;52.570;5.638;2023-09-30T14:50:57;4.20;;;0.98;;
81320;SDS011;70785;52.570;5.638;2023-09-30T14:53:23;4.75;;;1.45;;
81320;SDS011;70785;52.570;5.638;2023-09-30T14:55:50;4.32;;;1.00;;
81320;SDS011;70785;52.570;5.638;2023-09-30T14:58:16;4.15;;;1.05;;
81320;SDS011;70785;52.570;5.638;2023-09-30T15:00:43;4.55;;;0.90;;
81320;SDS011;70785;52.570;5.638;2023-09-30T15:03:09;4.40;;;1.10;;
81320;SDS011;70785;52.570;5.638;2023-09-30T15:05:36;5.28;;;1.00;;